Time;durP1;ratioP1;P1;durP2;ratioP2;P2;SDS_P1;SDS_P2;PMS_P1;PMS_P2;Temp;Humidity;BMP_temperature;BMP_pressure;BME280_temperature;BME280_humidity;BME280_pressure;Samples;Min_cycle;Max_cycle;Signal;HPM_P1;HPM_P2
2021/10/31 00:02:25;;;;;;;18.23;6.75;;;;;;;;;;5017873;28;20042;-83
2021/10/31 00:04:52;;;;;;;23.70;7.65;;;;;;;;;;5017114;28;20049;-74
2021/10/31 00:07:20;;;;;;;16.52;6.88;;;;;;;;;;4999736;28;20124;-80
2021/10/31 00:09:49;;;;;;;14.68;6.50;;;;;;;;;;4999513;28;20041;-73
2021/10/31 00:12:16;;;;;;;15.77;6.75;;;;;;;;;;5016263;28;20042;-73
2021/10/31 00:14:45;;;;;;;13.60;6.97;;;;;;;;;;4998942;28;20054;-80
2021/10/31 00:17:15;;;;;;;14.75;6.50;;;;;;;;;;5016795;28;20085;-81
2021/10/31 00:19:43;;;;;;;14.30;5.93;;;;;;;;;;4999069;28;20037;-80
2021/10/31 00:22:10;;;;;;;13.55;5.25;;;;;;;;;;5016373;28;20104;-73
2021/10/31 00:24:38;;;;;;;11.98;5.80;;;;;;;;;;5016342;28;20045;-82
2021/10/31 00:27:06;;;;;;;11.35;5.25;;;;;;;;;;4997059;28;20046;-80
2021/10/31 00:29:35;;;;;;;12.68;5.07;;;;;;;;;;5016786;28;20049;-82
2021/10/31 00:32:03;;;;;;;13.63;4.97;;;;;;;;;;4999080;28;20057;-79
2021/10/31 00:34:31;;;;;;;8.15;5.00;;;;;;;;;;5016673;28;20546;-82
2021/10/31 00:36:59;;;;;;;10.18;4.30;;;;;;;;;;4998214;28;20049;-74
2021/10/31 00:39:29;;;;;;;11.25;5.50;;;;;;;;;;4999545;28;20065;-74
2021/10/31 00:41:57;;;;;;;8.13;4.65;;;;;;;;;;5016978;28;20046;-82
2021/10/31 00:44:26;;;;;;;10.30;4.47;;;;;;;;;;4984847;28;20049;-80
2021/10/31 00:46:56;;;;;;;6.55;4.43;;;;;;;;;;4999663;28;20046;-74
2021/10/31 00:49:24;;;;;;;7.68;4.40;;;;;;;;;;4999388;28;20129;-74
2021/10/31 00:51:52;;;;;;;7.53;4.55;;;;;;;;;;4999907;28;20447;-74
2021/10/31 00:54:20;;;;;;;5.93;4.53;;;;;;;;;;4999650;28;20046;-75
2021/10/31 00:56:49;;;;;;;6.72;4.15;;;;;;;;;;4966136;28;20389;-82
2021/10/31 00:59:16;;;;;;;7.28;4.70;;;;;;;;;;5000096;28;20492;-74
2021/10/31 01:01:45;;;;;;;6.57;4.13;;;;;;;;;;4999564;28;20060;-74
2021/10/31 01:04:19;;;;;;;7.88;4.25;;;;;;;;;;4999122;28;20038;-82
2021/10/31 01:07:03;;;;;;;6.28;4.38;;;;;;;;;;4979720;28;20136;-82
2021/10/31 01:09:36;;;;;;;7.13;4.57;;;;;;;;;;4996949;28;20045;-82
2021/10/31 01:12:05;;;;;;;5.25;3.95;;;;;;;;;;4996830;28;20447;-81
2021/10/31 01:14:41;;;;;;;9.73;5.00;;;;;;;;;;4995855;28;20488;-74
2021/10/31 01:17:12;;;;;;;10.10;4.82;;;;;;;;;;4978541;28;20073;-74
2021/10/31 01:19:50;;;;;;;7.90;5.00;;;;;;;;;;4995595;28;20043;-74
2021/10/31 01:22:50;;;;;;;9.52;5.38;;;;;;;;;;4995831;28;20048;-74
2021/10/31 01:25:36;;;;;;;8.93;4.72;;;;;;;;;;4954748;28;20051;-82
2021/10/31 01:28:22;;;;;;;7.68;4.65;;;;;;;;;;4976730;28;20053;-74
2021/10/31 01:31:17;;;;;;;7.97;4.72;;;;;;;;;;4976386;28;20072;-82
2021/10/31 01:33:52;;;;;;;8.82;4.60;;;;;;;;;;4957224;28;20051;-74
2021/10/31 01:36:26;;;;;;;8.55;4.65;;;;;;;;;;4976368;28;20412;-74
2021/10/31 01:39:08;;;;;;;6.43;4.32;;;;;;;;;;4976118;28;20121;-74
2021/10/31 01:41:37;;;;;;;5.35;3.95;;;;;;;;;;4976460;28;20046;-74
2021/10/31 01:44:20;;;;;;;8.25;4.57;;;;;;;;;;4976455;28;20123;-82
2021/10/31 01:47:01;;;;;;;6.53;4.40;;;;;;;;;;4958916;28;20073;-80
2021/10/31 01:49:38;;;;;;;7.30;4.82;;;;;;;;;;4958891;28;20133;-79
2021/10/31 01:52:09;;;;;;;5.50;4.55;;;;;;;;;;4975887;28;20145;-74
2021/10/31 01:54:38;;;;;;;7.35;4.55;;;;;;;;;;4975910;28;20050;-82
2021/10/31 01:57:08;;;;;;;6.32;5.38;;;;;;;;;;4975867;28;20053;-74
2021/10/31 01:59:38;;;;;;;7.10;4.60;;;;;;;;;;4958376;28;20047;-80
2021/10/31 02:02:08;;;;;;;8.60;4.88;;;;;;;;;;4975506;28;20078;-75
2021/10/31 02:04:36;;;;;;;7.53;5.00;;;;;;;;;;4959051;28;20054;-74
2021/10/31 02:07:05;;;;;;;10.57;5.13;;;;;;;;;;4975768;28;20045;-82
2021/10/31 02:09:34;;;;;;;7.38;5.13;;;;;;;;;;4975924;28;20070;-82
2021/10/31 02:12:01;;;;;;;8.57;5.57;;;;;;;;;;4975758;28;20054;-82
2021/10/31 02:14:30;;;;;;;12.75;5.93;;;;;;;;;;4975745;28;20058;-80
2021/10/31 02:16:58;;;;;;;9.20;5.50;;;;;;;;;;4975106;28;20047;-74
2021/10/31 02:19:38;;;;;;;12.55;5.57;;;;;;;;;;4957534;28;20043;-80
2021/10/31 02:22:07;;;;;;;8.52;4.72;;;;;;;;;;4975290;28;20070;-80
2021/10/31 02:24:37;;;;;;;9.38;5.30;;;;;;;;;;4989466;28;20054;-80
2021/10/31 02:27:11;;;;;;;11.45;4.90;;;;;;;;;;4995905;28;20046;-75
2021/10/31 02:29:59;;;;;;;7.97;5.10;;;;;;;;;;4994868;28;20054;-82
2021/10/31 02:32:29;;;;;;;8.27;5.00;;;;;;;;;;4994806;28;20061;-75
2021/10/31 02:34:57;;;;;;;10.57;5.22;;;;;;;;;;4994472;28;20126;-80
2021/10/31 02:37:25;;;;;;;7.55;4.60;;;;;;;;;;4982184;28;20053;-80
2021/10/31 02:39:54;;;;;;;9.57;4.88;;;;;;;;;;4975485;28;20049;-82
2021/10/31 02:42:25;;;;;;;7.38;4.82;;;;;;;;;;4957176;28;20080;-82
2021/10/31 02:44:52;;;;;;;8.48;5.35;;;;;;;;;;4958806;28;20046;-75
2021/10/31 02:47:25;;;;;;;8.40;5.10;;;;;;;;;;4976039;28;20053;-74
2021/10/31 02:49:55;;;;;;;10.90;5.30;;;;;;;;;;4994943;28;20121;-74
2021/10/31 02:52:33;;;;;;;14.23;5.28;;;;;;;;;;4994736;28;20042;-82
2021/10/31 02:55:18;;;;;;;9.48;5.10;;;;;;;;;;4976594;28;20117;-74
2021/10/31 02:57:52;;;;;;;10.45;6.10;;;;;;;;;;4977372;28;20522;-82
2021/10/31 03:00:19;;;;;;;7.05;5.05;;;;;;;;;;4977054;28;20046;-79
2021/10/31 03:02:47;;;;;;;11.00;5.43;;;;;;;;;;4994346;28;20042;-74
2021/10/31 03:05:15;;;;;;;8.10;4.93;;;;;;;;;;4994171;28;20042;-82
2021/10/31 03:07:43;;;;;;;10.40;5.30;;;;;;;;;;4977168;28;20049;-82
2021/10/31 03:10:15;;;;;;;11.45;5.43;;;;;;;;;;4993989;28;20526;-74
2021/10/31 03:12:45;;;;;;;7.50;5.20;;;;;;;;;;4994163;28;20046;-74
2021/10/31 03:15:13;;;;;;;6.82;5.15;;;;;;;;;;4976181;28;20047;-75
2021/10/31 03:17:40;;;;;;;7.68;5.68;;;;;;;;;;4993922;28;20402;-75
2021/10/31 03:20:08;;;;;;;7.25;5.10;;;;;;;;;;4976930;28;20045;-82
2021/10/31 03:22:36;;;;;;;8.50;5.03;;;;;;;;;;4994213;28;20045;-79
2021/10/31 03:25:05;;;;;;;8.77;5.72;;;;;;;;;;4993570;28;20050;-81
2021/10/31 03:27:33;;;;;;;9.85;5.45;;;;;;;;;;4976694;28;20460;-80
2021/10/31 03:30:00;;;;;;;13.35;5.70;;;;;;;;;;4992664;28;20046;-75
2021/10/31 03:32:28;;;;;;;9.27;5.60;;;;;;;;;;4994098;28;20097;-75
2021/10/31 03:34:57;;;;;;;8.23;5.10;;;;;;;;;;4976353;28;20419;-82
2021/10/31 03:37:24;;;;;;;7.43;4.63;;;;;;;;;;4993412;28;20042;-74
2021/10/31 03:39:52;;;;;;;10.55;5.25;;;;;;;;;;4993599;28;20468;-80
2021/10/31 03:42:21;;;;;;;7.40;5.13;;;;;;;;;;4976088;28;20472;-80
2021/10/31 03:44:49;;;;;;;11.45;5.22;;;;;;;;;;4993173;28;20070;-75
2021/10/31 03:47:18;;;;;;;7.65;5.30;;;;;;;;;;4976394;28;20047;-82
2021/10/31 03:49:46;;;;;;;11.93;5.30;;;;;;;;;;4976816;28;20046;-80
2021/10/31 03:52:13;;;;;;;7.70;5.07;;;;;;;;;;4993465;28;20043;-75
2021/10/31 03:54:41;;;;;;;6.25;5.13;;;;;;;;;;4993321;28;20050;-80
2021/10/31 03:57:09;;;;;;;8.55;5.10;;;;;;;;;;4993228;28;20097;-79
2021/10/31 03:59:37;;;;;;;14.35;5.57;;;;;;;;;;4975410;28;20093;-82
2021/10/31 04:02:08;;;;;;;8.35;5.35;;;;;;;;;;4993148;28;20506;-80
2021/10/31 04:04:37;;;;;;;7.70;4.80;;;;;;;;;;4975834;28;20462;-74
2021/10/31 04:07:04;;;;;;;6.22;4.60;;;;;;;;;;4993325;28;20042;-82
2021/10/31 04:09:33;;;;;;;6.40;4.72;;;;;;;;;;4975916;28;20419;-82
2021/10/31 04:12:01;;;;;;;6.93;4.90;;;;;;;;;;4975312;28;20096;-80
2021/10/31 04:14:30;;;;;;;9.25;5.68;;;;;;;;;;4975772;28;20050;-83
2021/10/31 04:16:57;;;;;;;8.23;5.43;;;;;;;;;;4993075;28;20077;-82
2021/10/31 04:19:28;;;;;;;12.13;5.13;;;;;;;;;;4993007;28;20051;-74
2021/10/31 04:21:55;;;;;;;8.18;4.80;;;;;;;;;;4975762;28;20043;-80
2021/10/31 04:24:23;;;;;;;6.75;5.13;;;;;;;;;;5000771;28;20050;-74
2021/10/31 04:26:51;;;;;;;8.50;5.03;;;;;;;;;;4993091;28;20046;-74
2021/10/31 04:29:19;;;;;;;6.60;4.80;;;;;;;;;;4993677;28;20435;-80
2021/10/31 04:31:46;;;;;;;11.13;5.45;;;;;;;;;;4975638;28;20049;-74
2021/10/31 04:34:14;;;;;;;7.90;5.75;;;;;;;;;;4992946;28;20562;-74
2021/10/31 04:36:42;;;;;;;9.98;5.75;;;;;;;;;;4993118;28;20407;-82
2021/10/31 04:39:12;;;;;;;8.13;5.45;;;;;;;;;;4993097;28;20042;-74
2021/10/31 04:41:43;;;;;;;9.30;5.28;;;;;;;;;;4993492;28;20495;-74
2021/10/31 04:44:12;;;;;;;6.88;5.22;;;;;;;;;;4996586;28;20043;-75
2021/10/31 04:46:40;;;;;;;10.07;5.95;;;;;;;;;;4997162;28;20038;-80
2021/10/31 04:49:09;;;;;;;9.98;5.80;;;;;;;;;;4997043;28;20053;-82
2021/10/31 04:51:36;;;;;;;7.93;6.20;;;;;;;;;;4996383;28;20071;-74
2021/10/31 04:54:04;;;;;;;8.73;5.78;;;;;;;;;;4996408;28;20389;-81
2021/10/31 04:56:31;;;;;;;10.25;6.35;;;;;;;;;;4994725;28;20057;-74
2021/10/31 04:59:00;;;;;;;9.90;5.78;;;;;;;;;;4996245;28;20046;-74
2021/10/31 05:01:27;;;;;;;6.88;5.40;;;;;;;;;;4995183;28;20050;-82
2021/10/31 05:03:56;;;;;;;9.50;5.53;;;;;;;;;;4996616;28;20042;-79
2021/10/31 05:06:23;;;;;;;7.70;5.72;;;;;;;;;;4996588;28;20512;-80
2021/10/31 05:08:52;;;;;;;8.65;6.13;;;;;;;;;;4996866;28;20039;-82
2021/10/31 05:11:20;;;;;;;11.85;6.18;;;;;;;;;;4996064;28;20153;-82
2021/10/31 05:13:48;;;;;;;8.52;6.03;;;;;;;;;;4994819;28;20467;-82
2021/10/31 05:16:16;;;;;;;11.82;5.90;;;;;;;;;;4996184;28;20527;-82
2021/10/31 05:18:43;;;;;;;9.68;6.00;;;;;;;;;;4994838;28;20049;-83
2021/10/31 05:21:14;;;;;;;11.20;6.50;;;;;;;;;;4996014;28;20459;-75
2021/10/31 05:23:42;;;;;;;7.40;5.85;;;;;;;;;;4996084;28;20047;-74
2021/10/31 05:26:09;;;;;;;10.65;6.60;;;;;;;;;;4995661;28;20050;-74
2021/10/31 05:28:38;;;;;;;11.90;6.25;;;;;;;;;;4996095;28;20065;-74
2021/10/31 05:31:05;;;;;;;9.23;5.82;;;;;;;;;;4995710;28;20101;-80
2021/10/31 05:33:36;;;;;;;15.68;7.30;;;;;;;;;;4995682;28;20077;-74
2021/10/31 05:36:04;;;;;;;10.88;6.38;;;;;;;;;;4995863;28;20068;-74
2021/10/31 05:38:32;;;;;;;9.23;6.28;;;;;;;;;;4978462;28;20054;-74
2021/10/31 05:41:03;;;;;;;11.00;6.90;;;;;;;;;;4997362;28;20058;-81
2021/10/31 05:43:31;;;;;;;11.30;6.57;;;;;;;;;;4967997;28;20459;-74
2021/10/31 05:45:59;;;;;;;12.43;7.32;;;;;;;;;;4995889;28;20043;-74
2021/10/31 05:48:28;;;;;;;14.40;7.90;;;;;;;;;;4962366;28;20133;-80
2021/10/31 05:50:56;;;;;;;14.00;7.72;;;;;;;;;;4995670;28;20042;-82
2021/10/31 05:53:24;;;;;;;12.75;8.07;;;;;;;;;;4977070;28;20042;-75
2021/10/31 05:55:52;;;;;;;12.43;8.20;;;;;;;;;;4995129;28;20043;-82
2021/10/31 05:58:19;;;;;;;15.23;8.75;;;;;;;;;;4995259;28;20073;-74
2021/10/31 06:00:47;;;;;;;13.55;8.60;;;;;;;;;;4975564;28;20661;-73
2021/10/31 06:03:17;;;;;;;14.55;8.52;;;;;;;;;;4992522;28;20045;-82
2021/10/31 06:05:46;;;;;;;11.32;7.72;;;;;;;;;;4994614;28;20041;-84
2021/10/31 06:08:17;;;;;;;12.20;8.10;;;;;;;;;;4962059;28;20364;-83
2021/10/31 06:10:45;;;;;;;14.88;7.57;;;;;;;;;;4995476;28;20046;-73
2021/10/31 06:13:19;;;;;;;10.55;7.47;;;;;;;;;;4995223;28;20046;-82
2021/10/31 06:15:47;;;;;;;12.45;8.13;;;;;;;;;;4995063;28;20070;-73
2021/10/31 06:18:19;;;;;;;12.18;7.78;;;;;;;;;;4977917;28;20073;-73
2021/10/31 06:20:50;;;;;;;14.48;7.80;;;;;;;;;;4989900;28;20065;-73
2021/10/31 06:23:17;;;;;;;13.05;7.53;;;;;;;;;;4976866;28;20097;-73
2021/10/31 06:25:45;;;;;;;11.93;7.50;;;;;;;;;;4995131;28;20488;-72
2021/10/31 06:28:14;;;;;;;10.30;6.97;;;;;;;;;;4994055;28;20050;-73
2021/10/31 06:30:42;;;;;;;15.75;7.10;;;;;;;;;;4994961;28;20050;-82
2021/10/31 06:33:09;;;;;;;10.40;7.13;;;;;;;;;;4977296;28;20113;-73
2021/10/31 06:35:37;;;;;;;10.60;7.22;;;;;;;;;;4977838;28;20046;-72
2021/10/31 06:38:08;;;;;;;13.45;6.55;;;;;;;;;;4994728;28;20046;-80
2021/10/31 06:40:35;;;;;;;11.85;7.90;;;;;;;;;;4978216;28;20050;-80
2021/10/31 06:43:03;;;;;;;13.70;8.95;;;;;;;;;;4995141;28;20047;-73
2021/10/31 06:45:31;;;;;;;15.05;9.60;;;;;;;;;;4994811;28;20038;-79
2021/10/31 06:48:01;;;;;;;11.68;8.57;;;;;;;;;;4994867;28;20039;-81
2021/10/31 06:50:29;;;;;;;11.43;7.07;;;;;;;;;;4977234;28;20405;-73
2021/10/31 06:53:01;;;;;;;12.00;7.30;;;;;;;;;;4976913;28;20101;-73
2021/10/31 06:55:28;;;;;;;11.43;6.57;;;;;;;;;;4994176;28;20049;-79
2021/10/31 06:57:59;;;;;;;14.07;6.65;;;;;;;;;;4977347;28;20046;-82
2021/10/31 07:00:26;;;;;;;11.65;6.30;;;;;;;;;;4994126;28;20088;-79
2021/10/31 07:02:54;;;;;;;11.65;6.78;;;;;;;;;;4994274;28;20034;-79
2021/10/31 07:05:22;;;;;;;10.13;6.40;;;;;;;;;;4993427;28;20045;-73
2021/10/31 07:07:51;;;;;;;11.05;6.65;;;;;;;;;;4994196;28;20042;-77
2021/10/31 07:10:19;;;;;;;12.90;7.10;;;;;;;;;;4976986;28;20046;-73
2021/10/31 07:12:52;;;;;;;10.75;7.13;;;;;;;;;;4992358;28;20069;-79
2021/10/31 07:15:19;;;;;;;14.30;7.82;;;;;;;;;;4969389;28;20412;-72
2021/10/31 07:17:49;;;;;;;17.75;10.70;;;;;;;;;;4990756;28;20038;-79
2021/10/31 07:20:16;;;;;;;13.07;8.00;;;;;;;;;;4993150;28;20046;-73
2021/10/31 07:22:44;;;;;;;11.20;8.57;;;;;;;;;;4993522;28;20034;-73
2021/10/31 07:25:13;;;;;;;10.18;7.55;;;;;;;;;;4993729;28;20073;-74
2021/10/31 07:27:43;;;;;;;14.02;7.80;;;;;;;;;;4984685;28;20042;-80
2021/10/31 07:30:12;;;;;;;13.50;7.40;;;;;;;;;;4976708;28;20062;-82
2021/10/31 07:32:41;;;;;;;12.48;7.57;;;;;;;;;;4974178;28;20433;-82
2021/10/31 07:35:12;;;;;;;11.73;8.05;;;;;;;;;;4956385;28;20050;-82
2021/10/31 07:37:39;;;;;;;9.70;7.07;;;;;;;;;;4974669;28;20115;-73
2021/10/31 07:40:08;;;;;;;11.20;6.82;;;;;;;;;;4956769;28;20046;-73
2021/10/31 07:42:39;;;;;;;16.15;8.30;;;;;;;;;;4974270;28;20042;-79
2021/10/31 07:45:10;;;;;;;11.52;7.03;;;;;;;;;;4956550;28;20054;-82
2021/10/31 07:47:39;;;;;;;12.23;7.15;;;;;;;;;;4974555;28;20102;-73
2021/10/31 07:50:07;;;;;;;12.20;7.47;;;;;;;;;;4974286;28;20130;-82
2021/10/31 07:52:35;;;;;;;10.70;6.38;;;;;;;;;;4973981;28;20066;-73
2021/10/31 07:55:04;;;;;;;21.50;13.05;;;;;;;;;;4957282;28;20389;-73
2021/10/31 07:57:33;;;;;;;14.70;7.78;;;;;;;;;;4974280;28;20047;-80
2021/10/31 08:00:01;;;;;;;13.40;7.57;;;;;;;;;;4956985;28;20039;-82
2021/10/31 08:02:38;;;;;;;12.80;7.50;;;;;;;;;;4974251;28;20431;-82
2021/10/31 08:05:08;;;;;;;11.23;7.57;;;;;;;;;;4941292;28;20043;-81
2021/10/31 08:07:35;;;;;;;11.75;7.40;;;;;;;;;;4956952;28;20633;-74
2021/10/31 08:10:03;;;;;;;14.82;6.95;;;;;;;;;;4957108;28;20438;-74
2021/10/31 08:12:32;;;;;;;13.13;7.95;;;;;;;;;;4974103;28;20046;-85
2021/10/31 08:15:01;;;;;;;12.27;7.57;;;;;;;;;;4974102;28;20094;-75
2021/10/31 08:17:31;;;;;;;13.60;6.90;;;;;;;;;;4977776;28;20043;-80
2021/10/31 08:20:00;;;;;;;9.52;5.75;;;;;;;;;;4978020;28;20074;-79
2021/10/31 08:25:04;;;;;;;9.98;5.43;;;;;;;;;;4951243;29;20264;-84
2021/10/31 08:27:33;;;;;;;8.98;4.85;;;;;;;;;;4940999;29;20051;-81
2021/10/31 08:30:01;;;;;;;7.65;4.80;;;;;;;;;;4958546;29;20047;-83
2021/10/31 08:32:31;;;;;;;7.78;4.57;;;;;;;;;;4957840;29;20054;-74
2021/10/31 08:35:00;;;;;;;12.90;4.88;;;;;;;;;;4958286;29;20059;-84
2021/10/31 08:37:29;;;;;;;7.30;4.15;;;;;;;;;;4958359;29;20040;-74
2021/10/31 08:39:56;;;;;;;9.20;4.90;;;;;;;;;;4938891;29;20545;-75
2021/10/31 08:42:24;;;;;;;10.15;4.85;;;;;;;;;;4938908;29;20055;-75
2021/10/31 08:44:56;;;;;;;;;;;;;;;;;;4956188;29;20051;-73
2021/10/31 08:47:25;;;;;;;12.63;5.50;;;;;;;;;;4939024;29;19926;-75
2021/10/31 08:49:52;;;;;;;7.93;5.30;;;;;;;;;;4956056;29;20509;-75
2021/10/31 08:52:22;;;;;;;6.53;4.35;;;;;;;;;;4955760;29;20047;-80
2021/10/31 08:54:49;;;;;;;11.43;4.90;;;;;;;;;;4956411;29;20055;-80
2021/10/31 08:57:18;;;;;;;10.15;5.00;;;;;;;;;;4936771;29;20103;-83
2021/10/31 08:59:46;;;;;;;8.43;5.40;;;;;;;;;;4936610;29;20130;-73
2021/10/31 09:02:13;;;;;;;9.02;4.70;;;;;;;;;;4936611;29;20047;-84
2021/10/31 09:04:41;;;;;;;8.68;4.55;;;;;;;;;;4920181;29;20050;-82
2021/10/31 09:07:14;;;;;;;8.60;4.78;;;;;;;;;;4936450;29;20049;-72
2021/10/31 09:09:42;;;;;;;;;;;;;;;;;;4937471;29;20065;-86
2021/10/31 09:12:10;;;;;;;6.82;4.53;;;;;;;;;;4936375;29;19974;-72
2021/10/31 09:14:38;;;;;;;9.18;4.25;;;;;;;;;;4936248;29;20501;-72
2021/10/31 09:17:06;;;;;;;10.48;4.55;;;;;;;;;;4936342;29;20051;-71
2021/10/31 09:19:34;;;;;;;9.88;4.20;;;;;;;;;;4933394;29;20043;-72
2021/10/31 09:22:02;;;;;;;8.40;4.20;;;;;;;;;;4935900;29;20048;-72
2021/10/31 09:24:30;;;;;;;6.57;4.07;;;;;;;;;;4947509;29;20386;-72
2021/10/31 09:26:58;;;;;;;8.68;4.88;;;;;;;;;;4954612;28;20456;-79
2021/10/31 09:29:31;;;;;;;10.45;4.80;;;;;;;;;;4953610;29;20791;-76
2021/10/31 09:31:59;;;;;;;8.02;4.68;;;;;;;;;;4955007;28;20062;-72
2021/10/31 09:34:29;;;;;;;10.68;4.88;;;;;;;;;;4953810;29;20133;-79
2021/10/31 09:36:57;;;;;;;6.38;4.20;;;;;;;;;;4955043;28;20453;-76
2021/10/31 09:39:25;;;;;;;8.80;4.13;;;;;;;;;;4955013;29;20500;-72
2021/10/31 09:41:53;;;;;;;5.90;3.67;;;;;;;;;;4954860;29;20044;-72
2021/10/31 09:44:25;;;;;;;7.93;4.00;;;;;;;;;;4954993;29;20539;-81
2021/10/31 09:46:53;;;;;;;;;;;;;;;;;;4955425;28;20047;-78
2021/10/31 09:49:22;;;;;;;7.28;3.95;;;;;;;;;;4954503;29;19928;-79
2021/10/31 09:51:50;;;;;;;8.07;3.95;;;;;;;;;;4954651;28;20050;-72
2021/10/31 09:54:19;;;;;;;8.90;4.47;;;;;;;;;;4954606;29;20047;-78
2021/10/31 09:56:47;;;;;;;9.32;3.75;;;;;;;;;;4954642;28;20051;-72
2021/10/31 09:59:18;;;;;;;7.30;3.90;;;;;;;;;;4953569;29;20051;-72
2021/10/31 10:04:54;;;;;;;8.98;4.35;;;;;;;;;;4914080;29;20044;-76
2021/10/31 10:07:23;;;;;;;10.57;4.70;;;;;;;;;;4913534;29;20060;-72
2021/10/31 10:09:54;;;;;;;10.70;4.53;;;;;;;;;;4911430;29;20052;-79
2021/10/31 10:12:22;;;;;;;11.77;4.80;;;;;;;;;;4911295;29;20189;-72
2021/10/31 10:14:55;;;;;;;11.50;4.95;;;;;;;;;;4906444;29;20055;-72
2021/10/31 10:17:25;;;;;;;8.25;4.35;;;;;;;;;;4915563;29;20060;-79
2021/10/31 10:19:56;;;;;;;14.75;5.80;;;;;;;;;;4915362;29;20087;-72
2021/10/31 10:22:24;;;;;;;12.52;4.68;;;;;;;;;;4913783;29;20040;-79
2021/10/31 10:24:56;;;;;;;8.95;4.72;;;;;;;;;;4914323;29;20052;-79
2021/10/31 10:27:27;;;;;;;10.55;4.78;;;;;;;;;;4916033;29;20090;-80
2021/10/31 10:29:56;;;;;;;12.70;5.90;;;;;;;;;;4914289;29;20048;-74
2021/10/31 10:32:25;;;;;;;15.13;5.97;;;;;;;;;;4899938;29;20080;-79
2021/10/31 10:34:53;;;;;;;12.32;6.72;;;;;;;;;;4914479;29;20048;-72
2021/10/31 10:37:26;;;;;;;13.70;6.13;;;;;;;;;;4915780;29;20123;-75
2021/10/31 10:39:53;;;;;;;16.08;8.32;;;;;;;;;;4930362;29;20043;-79
2021/10/31 10:42:23;;;;;;;12.15;6.82;;;;;;;;;;4932743;29;20047;-74
2021/10/31 10:44:51;;;;;;;12.45;7.15;;;;;;;;;;4932395;29;20134;-74
2021/10/31 10:47:20;;;;;;;10.05;5.78;;;;;;;;;;4933562;29;20382;-79
2021/10/31 10:49:53;;;;;;;15.73;5.63;;;;;;;;;;4934190;29;20054;-74
2021/10/31 10:52:25;;;;;;;12.23;5.45;;;;;;;;;;4934503;29;20400;-83
2021/10/31 10:54:57;;;;;;;11.23;4.88;;;;;;;;;;4935170;29;20058;-74
2021/10/31 10:57:28;;;;;;;8.25;4.80;;;;;;;;;;4935871;29;20077;-83
2021/10/31 10:59:57;;;;;;;12.88;5.50;;;;;;;;;;4935611;29;20413;-83
2021/10/31 11:02:26;;;;;;;10.23;5.47;;;;;;;;;;4934791;29;20115;-79
2021/10/31 11:05:00;;;;;;;12.10;6.20;;;;;;;;;;4936226;29;20039;-75
2021/10/31 11:07:41;;;;;;;10.98;5.93;;;;;;;;;;4935866;29;20047;-83
2021/10/31 11:10:11;;;;;;;16.77;8.52;;;;;;;;;;4936066;29;20044;-74
2021/10/31 11:12:40;;;;;;;12.23;6.60;;;;;;;;;;4935577;29;20048;-82
2021/10/31 11:15:34;;;;;;;12.07;6.63;;;;;;;;;;4935749;29;20071;-74
2021/10/31 11:18:05;;;;;;;13.52;5.68;;;;;;;;;;4934687;29;20055;-77
2021/10/31 11:20:34;;;;;;;14.00;5.90;;;;;;;;;;4935658;29;20044;-79
2021/10/31 11:23:03;;;;;;;9.68;6.15;;;;;;;;;;4935274;29;20048;-74
2021/10/31 11:25:32;;;;;;;12.02;5.20;;;;;;;;;;4935315;29;20465;-74
2021/10/31 11:28:02;;;;;;;14.93;6.03;;;;;;;;;;4935591;29;20043;-82
2021/10/31 11:30:33;;;;;;;15.05;7.03;;;;;;;;;;4918348;29;20044;-79
2021/10/31 11:33:01;;;;;;;16.08;7.95;;;;;;;;;;4935759;29;20047;-82
2021/10/31 11:35:32;;;;;;;17.60;7.88;;;;;;;;;;4935667;29;20047;-82
2021/10/31 11:37:59;;;;;;;15.43;6.10;;;;;;;;;;4935314;29;20509;-82
2021/10/31 11:40:33;;;;;;;14.73;6.88;;;;;;;;;;4918800;29;20551;-74
2021/10/31 11:43:02;;;;;;;17.10;7.40;;;;;;;;;;4935158;29;20560;-74
2021/10/31 11:45:33;;;;;;;12.95;6.20;;;;;;;;;;4935441;29;20062;-74
2021/10/31 11:48:12;;;;;;;18.10;8.70;;;;;;;;;;4935332;29;20516;-82
2021/10/31 11:50:41;;;;;;;16.67;7.43;;;;;;;;;;4917613;29;20130;-79
2021/10/31 11:53:14;;;;;;;15.80;8.88;;;;;;;;;;4935218;29;20537;-74
2021/10/31 11:55:50;;;;;;;18.85;8.50;;;;;;;;;;4934940;29;20051;-79
2021/10/31 11:58:30;;;;;;;21.15;8.02;;;;;;;;;;4935250;29;20056;-82
2021/10/31 12:01:00;;;;;;;21.50;9.65;;;;;;;;;;4918334;29;20500;-74
2021/10/31 12:03:34;;;;;;;25.00;9.85;;;;;;;;;;4935189;29;20046;-82
2021/10/31 12:06:22;;;;;;;19.58;8.82;;;;;;;;;;4918697;29;20044;-74
2021/10/31 12:09:01;;;;;;;21.30;9.18;;;;;;;;;;4935227;29;20036;-82
2021/10/31 12:11:32;;;;;;;19.60;8.93;;;;;;;;;;4917493;29;20118;-74
2021/10/31 12:14:01;;;;;;;17.73;7.90;;;;;;;;;;4951005;29;20093;-79
2021/10/31 12:16:49;;;;;;;17.83;7.20;;;;;;;;;;4953116;29;20046;-82
2021/10/31 12:19:23;;;;;;;20.15;8.30;;;;;;;;;;4937041;29;20054;-75
2021/10/31 12:22:09;;;;;;;24.00;7.43;;;;;;;;;;4954289;29;20130;-78
2021/10/31 12:24:38;;;;;;;17.80;7.47;;;;;;;;;;4954086;29;20055;-79
2021/10/31 12:27:09;;;;;;;14.07;7.30;;;;;;;;;;4954102;29;20129;-80
2021/10/31 12:29:38;;;;;;;13.95;6.22;;;;;;;;;;4954111;29;20463;-82
2021/10/31 12:32:07;;;;;;;14.52;7.15;;;;;;;;;;4954395;29;20122;-79
2021/10/31 12:34:38;;;;;;;16.50;6.40;;;;;;;;;;4954328;29;20047;-82
2021/10/31 12:37:26;;;;;;;14.20;7.07;;;;;;;;;;4936742;29;20118;-74
2021/10/31 12:40:18;;;;;;;16.77;6.20;;;;;;;;;;4936857;29;20051;-74
2021/10/31 12:42:54;;;;;;;13.10;6.75;;;;;;;;;;4954172;29;20445;-79
2021/10/31 12:45:26;;;;;;;12.23;6.30;;;;;;;;;;4954030;29;20126;-74
2021/10/31 12:47:55;;;;;;;14.35;6.28;;;;;;;;;;4954301;29;20047;-74
2021/10/31 12:50:25;;;;;;;11.02;5.90;;;;;;;;;;4954072;29;20043;-74
2021/10/31 12:52:58;;;;;;;14.27;4.97;;;;;;;;;;4954179;29;20043;-74
2021/10/31 12:55:28;;;;;;;9.60;4.80;;;;;;;;;;4936469;29;20051;-74
2021/10/31 12:58:02;;;;;;;15.68;5.90;;;;;;;;;;4937040;29;20517;-74
2021/10/31 13:00:31;;;;;;;14.32;6.82;;;;;;;;;;4953921;29;20122;-74
2021/10/31 13:03:02;;;;;;;16.58;7.65;;;;;;;;;;4939222;29;20412;-74
2021/10/31 13:05:35;;;;;;;17.65;8.10;;;;;;;;;;4957550;29;20065;-74
2021/10/31 13:08:04;;;;;;;15.70;6.68;;;;;;;;;;4957291;29;20436;-81
2021/10/31 13:10:37;;;;;;;19.38;8.30;;;;;;;;;;4956855;29;20039;-74
2021/10/31 13:13:08;;;;;;;12.48;6.75;;;;;;;;;;4957326;29;20058;-74
2021/10/31 13:15:40;;;;;;;16.65;7.07;;;;;;;;;;4957200;29;20064;-78
2021/10/31 13:18:15;;;;;;;14.50;6.70;;;;;;;;;;4957403;29;20047;-74
2021/10/31 13:20:48;;;;;;;11.43;6.40;;;;;;;;;;4957065;29;20078;-74
2021/10/31 13:23:15;;;;;;;;;;;;;;;;;;4957038;29;20113;-82
2021/10/31 13:25:58;;;;;;;19.55;6.82;;;;;;;;;;4956854;29;19923;-79
2021/10/31 13:28:29;;;;;;;18.83;7.30;;;;;;;;;;4956949;29;20071;-83
2021/10/31 13:30:56;;;;;;;17.10;7.00;;;;;;;;;;4957155;29;20043;-83
2021/10/31 13:33:28;;;;;;;15.63;7.13;;;;;;;;;;4957198;29;20466;-80
2021/10/31 13:36:17;;;;;;;13.65;7.15;;;;;;;;;;4956767;29;20050;-83
2021/10/31 13:38:59;;;;;;;13.70;6.85;;;;;;;;;;4948544;29;20110;-83
2021/10/31 13:41:33;;;;;;;12.38;6.70;;;;;;;;;;4956884;29;20075;-79
2021/10/31 13:44:23;;;;;;;15.52;5.90;;;;;;;;;;4956742;29;20039;-78
2021/10/31 13:47:03;;;;;;;14.13;6.63;;;;;;;;;;4956816;29;20050;-83
2021/10/31 13:49:34;;;;;;;14.98;6.60;;;;;;;;;;4956620;29;20043;-74
2021/10/31 13:52:02;;;;;;;15.93;7.68;;;;;;;;;;4956422;29;20047;-78
2021/10/31 13:54:30;;;;;;;16.80;6.88;;;;;;;;;;4956506;29;20043;-75
2021/10/31 13:56:59;;;;;;;13.15;6.30;;;;;;;;;;4939614;29;20044;-75
2021/10/31 13:59:27;;;;;;;14.38;7.10;;;;;;;;;;4956334;29;20047;-80
2021/10/31 14:01:58;;;;;;;21.00;7.63;;;;;;;;;;4939154;29;20419;-79
2021/10/31 14:04:29;;;;;;;21.17;7.75;;;;;;;;;;4956460;29;20047;-79
2021/10/31 14:07:08;;;;;;;15.60;7.45;;;;;;;;;;4956001;29;20075;-84
2021/10/31 14:09:51;;;;;;;21.77;8.40;;;;;;;;;;4955960;29;20147;-80
2021/10/31 14:12:24;;;;;;;14.90;7.57;;;;;;;;;;4954064;29;20145;-75
2021/10/31 14:15:24;;;;;;;14.02;6.97;;;;;;;;;;4955370;28;20071;-83
2021/10/31 14:17:59;;;;;;;15.63;6.90;;;;;;;;;;4924651;29;20501;-79
2021/10/31 14:20:37;;;;;;;19.60;7.13;;;;;;;;;;4956034;29;20043;-74
2021/10/31 14:23:07;;;;;;;21.70;7.28;;;;;;;;;;4955371;29;20480;-79
2021/10/31 14:25:46;;;;;;;12.85;6.93;;;;;;;;;;4938826;29;20047;-79
2021/10/31 14:28:17;;;;;;;12.38;5.50;;;;;;;;;;4956091;29;20043;-83
2021/10/31 14:31:05;;;;;;;13.55;5.85;;;;;;;;;;4955680;29;20433;-75
2021/10/31 14:33:35;;;;;;;16.80;6.97;;;;;;;;;;4938849;29;20047;-75
2021/10/31 14:36:14;;;;;;;13.77;6.38;;;;;;;;;;4955519;29;20054;-75
2021/10/31 14:38:42;;;;;;;14.63;7.35;;;;;;;;;;4955625;29;20047;-75
2021/10/31 14:41:17;;;;;;;20.67;7.03;;;;;;;;;;4938477;29;20062;-75
2021/10/31 14:43:50;;;;;;;14.90;6.90;;;;;;;;;;4938436;29;20492;-83
2021/10/31 14:46:20;;;;;;;18.52;7.57;;;;;;;;;;4955456;29;20039;-83
2021/10/31 14:48:59;;;;;;;19.40;7.53;;;;;;;;;;4922588;29;20073;-79
2021/10/31 14:51:32;;;;;;;18.27;7.60;;;;;;;;;;4954976;29;20043;-74
2021/10/31 14:54:23;;;;;;;17.10;7.85;;;;;;;;;;4954199;29;20047;-75
2021/10/31 14:59:51;;;;;;;18.25;8.88;;;;;;;;;;4955351;29;20114;-83
2021/10/31 15:02:39;;;;;;;23.83;8.60;;;;;;;;;;4938073;29;20379;-75
2021/10/31 15:05:11;;;;;;;21.25;8.52;;;;;;;;;;4954989;29;20070;-74
2021/10/31 15:07:39;;;;;;;18.92;7.47;;;;;;;;;;4938201;29;20098;-74